Time;durP1;ratioP1;P1;durP2;ratioP2;P2;SDS_P1;SDS_P2;PMS_P1;PMS_P2;Temp;Humidity;BMP_temperature;BMP_pressure;BME280_temperature;BME280_humidity;BME280_pressure;Samples;Min_cycle;Max_cycle;Signal;HPM_P1;HPM_P2
2023/01/23 00:00:11;;;;;;;1.70;1.10;;;5.90;42.90;;;;;;4953426;29;20187;-70
2023/01/23 00:02:37;;;;;;;3.25;2.17;;;5.70;43.00;;;;;;4952800;29;20556;-70
2023/01/23 00:05:03;;;;;;;4.17;1.60;;;5.50;43.70;;;;;;4955133;28;20273;-71
2023/01/23 00:07:29;;;;;;;1.90;1.40;;;5.40;44.00;;;;;;4938526;29;20207;-70
2023/01/23 00:09:54;;;;;;;1.60;1.10;;;5.60;43.60;;;;;;4954669;28;21044;-70
2023/01/23 00:12:20;;;;;;;1.90;1.40;;;5.80;42.90;;;;;;4955199;29;20273;-70
2023/01/23 00:14:45;;;;;;;1.80;1.20;;;5.80;42.90;;;;;;4950205;28;20261;-70
2023/01/23 00:17:11;;;;;;;1.80;1.30;;;5.80;43.00;;;;;;4953443;29;20182;-70
2023/01/23 00:19:36;;;;;;;2.17;1.43;;;5.80;42.60;;;;;;4954015;29;20231;-70
2023/01/23 00:22:02;;;;;;;7.00;3.40;;;5.80;42.70;;;;;;4954522;29;20194;-70
2023/01/23 00:24:28;;;;;;;2.63;1.50;;;5.70;43.20;;;;;;4954675;28;20187;-69
2023/01/23 00:26:55;;;;;;;1.70;1.20;;;5.70;43.30;;;;;;4955020;29;20172;-70
2023/01/23 00:29:20;;;;;;;1.70;1.20;;;5.60;43.30;;;;;;4954047;29;20215;-69
2023/01/23 00:31:46;;;;;;;1.70;1.20;;;5.70;43.20;;;;;;4954686;29;20631;-70
2023/01/23 00:34:13;;;;;;;2.13;1.40;;;5.90;43.10;;;;;;4954338;28;20175;-69
2023/01/23 00:36:41;;;;;;;1.90;1.45;;;5.70;43.10;;;;;;4954729;29;20187;-70
2023/01/23 00:39:12;;;;;;;1.70;1.20;;;5.70;42.90;;;;;;4937536;29;20756;-68
2023/01/23 00:41:38;;;;;;;2.38;1.85;;;5.30;43.70;;;;;;4953155;29;20551;-69
2023/01/23 00:44:03;;;;;;;1.80;1.20;;;5.50;43.70;;;;;;4953065;28;20188;-68
2023/01/23 00:46:29;;;;;;;1.70;1.10;;;5.30;43.70;;;;;;4954526;28;20199;-69
2023/01/23 00:48:54;;;;;;;2.30;1.77;;;5.20;44.90;;;;;;4937015;29;20241;-68
2023/01/23 00:51:20;;;;;;;17.23;3.20;;;5.30;44.70;;;;;;4952991;29;20179;-68
2023/01/23 00:53:46;;;;;;;1.77;1.20;;;5.30;44.60;;;;;;4953539;29;20183;-68
2023/01/23 00:56:12;;;;;;;1.70;1.10;;;5.30;44.30;;;;;;4952661;28;20199;-70
2023/01/23 00:58:39;;;;;;;2.60;1.77;;;5.40;44.00;;;;;;4937203;29;20482;-69
2023/01/23 01:01:05;;;;;;;2.78;2.00;;;5.60;43.50;;;;;;4936108;29;20431;-68
2023/01/23 01:03:30;;;;;;;1.70;1.10;;;5.70;43.20;;;;;;4951499;29;20187;-69
2023/01/23 01:05:56;;;;;;;1.90;1.37;;;5.60;43.60;;;;;;4940406;29;20695;-69
2023/01/23 01:08:22;;;;;;;1.93;1.40;;;5.40;43.60;;;;;;4951924;29;20211;-69
2023/01/23 01:10:47;;;;;;;2.10;1.67;;;5.30;44.30;;;;;;4959638;28;20506;-69
2023/01/23 01:13:13;;;;;;;3.13;1.50;;;5.30;44.60;;;;;;4953191;28;20175;-69
2023/01/23 01:15:39;;;;;;;1.70;1.20;;;5.50;44.20;;;;;;4953770;28;20305;-69
2023/01/23 01:18:04;;;;;;;1.70;1.10;;;5.60;43.70;;;;;;4953758;29;20184;-69
2023/01/23 01:20:30;;;;;;;2.13;1.47;;;5.70;43.20;;;;;;4953970;29;20182;-69
2023/01/23 01:22:57;;;;;;;3.20;1.77;;;5.70;43.10;;;;;;4953590;29;20654;-69
2023/01/23 01:25:24;;;;;;;2.13;1.30;;;5.50;43.00;;;;;;4952597;29;20758;-68
2023/01/23 01:27:49;;;;;;;4.30;2.53;;;5.50;43.50;;;;;;4953246;29;20219;-68
2023/01/23 01:30:16;;;;;;;1.90;1.30;;;5.50;43.00;;;;;;4954115;29;20259;-68
2023/01/23 01:32:42;;;;;;;1.80;1.20;;;5.50;43.40;;;;;;4953739;29;20247;-69
2023/01/23 01:35:09;;;;;;;1.70;1.10;;;5.40;43.00;;;;;;4953047;28;20211;-70
2023/01/23 01:37:37;;;;;;;1.85;1.30;;;5.50;43.40;;;;;;4953498;29;20238;-69
2023/01/23 01:40:07;;;;;;;2.08;1.63;;;5.50;42.90;;;;;;4953714;29;20215;-68
2023/01/23 01:42:46;;;;;;;2.33;1.50;;;5.50;42.90;;;;;;4952452;29;20187;-69
2023/01/23 01:45:49;;;;;;;2.33;1.58;;;5.40;43.00;;;;;;4953678;28;20203;-68
2023/01/23 01:48:15;;;;;;;2.30;1.80;;;5.20;43.80;;;;;;4952742;29;20239;-69
2023/01/23 01:50:41;;;;;;;1.70;1.20;;;5.00;44.20;;;;;;4959929;28;20198;-69
2023/01/23 01:53:06;;;;;;;1.70;1.10;;;5.40;44.50;;;;;;4952744;28;20179;-70
2023/01/23 01:55:32;;;;;;;1.83;1.50;;;5.20;44.30;;;;;;4952534;28;20215;-68
2023/01/23 01:57:59;;;;;;;2.73;1.90;;;5.20;44.10;;;;;;4935249;29;20195;-69
2023/01/23 02:00:25;;;;;;;2.45;1.60;;;5.30;43.60;;;;;;4943849;29;20430;-70
2023/01/23 02:02:54;;;;;;;2.00;1.27;;;5.40;43.50;;;;;;4951896;29;20198;-69
2023/01/23 02:05:32;;;;;;;3.85;1.60;;;5.70;42.60;;;;;;4952549;28;20606;-69
2023/01/23 02:07:57;;;;;;;2.10;1.65;;;5.60;42.20;;;;;;4953312;29;20847;-69
2023/01/23 02:10:23;;;;;;;4.67;3.80;;;5.60;42.40;;;;;;4936243;29;20175;-70
2023/01/23 02:12:50;;;;;;;1.80;1.20;;;5.40;43.20;;;;;;4952092;29;20242;-69
2023/01/23 02:15:18;;;;;;;2.30;1.60;;;5.50;43.20;;;;;;4950289;28;20824;-69
2023/01/23 02:17:46;;;;;;;1.85;1.38;;;5.60;42.60;;;;;;4952145;29;20207;-69
2023/01/23 02:20:20;;;;;;;2.92;1.63;;;5.60;42.50;;;;;;4952968;29;20218;-69
2023/01/23 02:23:09;;;;;;;1.80;1.20;;;5.30;43.40;;;;;;4952168;29;20198;-68
2023/01/23 02:25:42;;;;;;;2.00;1.40;;;5.50;42.80;;;;;;4951047;28;20269;-68
2023/01/23 02:28:10;;;;;;;1.63;1.08;;;5.50;43.80;;;;;;4952698;29;20254;-68
2023/01/23 02:30:38;;;;;;;1.70;1.10;;;5.70;42.30;;;;;;4953137;29;20184;-68
2023/01/23 02:33:11;;;;;;;2.00;1.40;;;5.40;43.00;;;;;;4934992;29;20193;-69
2023/01/23 02:35:37;;;;;;;2.47;1.77;;;5.30;43.10;;;;;;4952900;29;20701;-69
2023/01/23 02:38:06;;;;;;;1.80;1.20;;;5.50;43.20;;;;;;4952897;29;20219;-69
2023/01/23 02:40:35;;;;;;;1.70;1.10;;;5.60;42.50;;;;;;4953017;29;20190;-70
2023/01/23 02:43:04;;;;;;;1.95;1.30;;;5.50;42.80;;;;;;4951543;29;20187;-69
2023/01/23 02:45:30;;;;;;;1.70;1.20;;;5.50;42.60;;;;;;4935274;29;20207;-69
2023/01/23 02:47:56;;;;;;;1.90;1.33;;;5.50;42.80;;;;;;4953030;29;20783;-68
2023/01/23 02:50:22;;;;;;;1.88;1.35;;;5.40;42.80;;;;;;4952804;29;20178;-68
2023/01/23 02:52:49;;;;;;;2.25;1.40;;;5.40;42.90;;;;;;4951465;29;20290;-68
2023/01/23 02:55:19;;;;;;;1.70;1.17;;;5.30;43.00;;;;;;4952211;28;20206;-68
2023/01/23 02:57:44;;;;;;;2.28;1.38;;;5.30;43.20;;;;;;4952726;29;20230;-69
2023/01/23 03:00:14;;;;;;;1.90;1.10;;;5.50;42.40;;;;;;4951198;29;20698;-69
2023/01/23 03:02:40;;;;;;;1.75;1.20;;;5.60;42.20;;;;;;4944610;29;20731;-70
2023/01/23 03:05:07;;;;;;;1.80;1.20;;;5.70;42.10;;;;;;4950017;28;20326;-68
2023/01/23 03:07:32;;;;;;;2.60;1.23;;;5.70;41.80;;;;;;4960637;28;20238;-68
2023/01/23 03:09:58;;;;;;;1.80;1.20;;;5.60;42.10;;;;;;4941421;29;20214;-69
2023/01/23 03:12:23;;;;;;;1.70;1.20;;;5.50;42.30;;;;;;4955611;29;20179;-68
2023/01/23 03:14:53;;;;;;;2.27;1.30;;;5.50;42.60;;;;;;4952976;29;20261;-69
2023/01/23 03:17:18;;;;;;;2.83;2.45;;;5.50;42.30;;;;;;4955107;29;20183;-68
2023/01/23 03:19:44;;;;;;;1.80;1.20;;;5.30;43.30;;;;;;4955042;29;20257;-68
2023/01/23 03:22:10;;;;;;;1.90;1.30;;;5.20;43.20;;;;;;4958585;28;20176;-68
2023/01/23 03:24:35;;;;;;;2.10;1.60;;;5.40;43.00;;;;;;4954577;28;20262;-69
2023/01/23 03:27:01;;;;;;;1.80;1.20;;;5.40;42.70;;;;;;4955660;29;20188;-68
2023/01/23 03:32:12;;;;;;;1.77;1.17;;;5.40;42.70;;;;;;4956575;29;20251;-69
2023/01/23 03:34:38;;;;;;;2.55;1.45;;;5.40;43.50;;;;;;4956058;28;20619;-68
2023/01/23 03:37:06;;;;;;;2.77;1.77;;;5.30;43.10;;;;;;4954630;29;20184;-68
2023/01/23 03:42:17;;;;;;;1.70;1.10;;;5.20;43.20;;;;;;4956436;29;20201;-69
2023/01/23 03:44:42;;;;;;;4.47;2.07;;;5.30;43.00;;;;;;4956359;29;20217;-68
2023/01/23 03:47:09;;;;;;;2.00;1.50;;;5.40;42.90;;;;;;4954934;29;20625;-68
2023/01/23 03:49:34;;;;;;;2.03;1.58;;;5.40;43.10;;;;;;4955988;29;20614;-68
2023/01/23 03:52:00;;;;;;;2.23;1.30;;;5.30;43.20;;;;;;4956458;29;20258;-68
2023/01/23 03:54:26;;;;;;;2.63;1.83;;;5.40;42.70;;;;;;4938788;28;20262;-69
2023/01/23 03:56:53;;;;;;;2.10;1.50;;;5.30;43.10;;;;;;4955634;29;20525;-68
2023/01/23 03:59:18;;;;;;;2.00;1.42;;;5.50;42.80;;;;;;4956197;28;20199;-68
2023/01/23 04:01:46;;;;;;;5.10;1.83;;;5.50;42.20;;;;;;4939607;29;20202;-68
2023/01/23 04:04:12;;;;;;;1.63;1.10;;;5.10;43.20;;;;;;4956075;28;20183;-71
2023/01/23 04:06:38;;;;;;;2.03;1.47;;;5.30;43.30;;;;;;4957310;29;20190;-70
2023/01/23 04:09:04;;;;;;;2.10;1.40;;;5.40;43.00;;;;;;4955621;29;20546;-68
2023/01/23 04:11:29;;;;;;;1.90;1.38;;;5.30;43.20;;;;;;4955455;29;20285;-68
2023/01/23 04:13:55;;;;;;;2.00;1.50;;;3.80;42.60;;;;;;4955333;29;20183;-68
2023/01/23 04:16:21;;;;;;;2.00;1.20;;;5.20;43.20;;;;;;4953199;28;20282;-69
2023/01/23 04:18:50;;;;;;;1.80;1.20;;;5.20;43.60;;;;;;4954445;28;20183;-68
2023/01/23 04:21:17;;;;;;;3.20;2.70;;;5.20;43.70;;;;;;4955794;29;20183;-68
2023/01/23 04:23:42;;;;;;;3.35;1.73;;;5.20;43.70;;;;;;4937901;29;20179;-68
2023/01/23 04:26:08;;;;;;;2.20;1.53;;;5.10;43.30;;;;;;4955079;28;20195;-68
2023/01/23 04:28:33;;;;;;;1.70;1.10;;;5.10;43.60;;;;;;4954473;29;20254;-69
2023/01/23 04:30:59;;;;;;;2.00;1.40;;;5.10;43.90;;;;;;4955321;29;20183;-69
2023/01/23 04:33:25;;;;;;;2.10;1.77;;;5.20;44.00;;;;;;4952900;29;20183;-68
2023/01/23 04:35:54;;;;;;;4.33;1.53;;;5.40;42.80;;;;;;4949247;29;20199;-68
2023/01/23 04:38:21;;;;;;;1.90;1.35;;;5.40;42.90;;;;;;4955108;29;20249;-68
2023/01/23 04:40:47;;;;;;;2.50;1.42;;;5.30;43.10;;;;;;4938945;29;20258;-70
2023/01/23 04:43:13;;;;;;;1.70;1.10;;;5.20;43.60;;;;;;4954460;29;20233;-70
2023/01/23 04:45:38;;;;;;;1.67;1.07;;;4.90;44.00;;;;;;4954909;28;20423;-68
2023/01/23 04:48:04;;;;;;;2.50;1.60;;;4.90;44.70;;;;;;4954793;29;20462;-68
2023/01/23 04:50:31;;;;;;;2.50;1.40;;;5.10;43.80;;;;;;4953694;29;20184;-68
2023/01/23 04:52:57;;;;;;;2.42;1.60;;;5.20;44.10;;;;;;4952797;29;20183;-70
2023/01/23 04:55:23;;;;;;;1.90;1.27;;;5.00;44.00;;;;;;4954097;28;20762;-68
2023/01/23 04:57:49;;;;;;;1.80;1.23;;;5.20;43.70;;;;;;4954321;29;20179;-68
2023/01/23 05:00:16;;;;;;;2.00;1.50;;;5.10;43.80;;;;;;4953353;29;20456;-68
2023/01/23 05:02:41;;;;;;;2.40;1.67;;;5.00;44.40;;;;;;4952752;29;20919;-68
2023/01/23 05:05:07;;;;;;;3.90;2.37;;;5.30;44.40;;;;;;4953874;28;20227;-68
2023/01/23 05:07:33;;;;;;;2.53;1.50;;;5.20;43.90;;;;;;4953817;29;20323;-68
2023/01/23 05:09:59;;;;;;;2.37;1.60;;;5.30;43.50;;;;;;4954014;28;20273;-69
2023/01/23 05:12:24;;;;;;;2.00;1.30;;;5.40;43.20;;;;;;4952605;29;20427;-69
2023/01/23 05:14:50;;;;;;;1.70;1.10;;;5.20;43.00;;;;;;4953126;28;20203;-69
2023/01/23 05:17:15;;;;;;;2.10;1.50;;;5.10;43.80;;;;;;4953790;29;20179;-69
2023/01/23 05:19:41;;;;;;;3.70;1.93;;;5.30;43.40;;;;;;4953588;29;20714;-69
2023/01/23 05:22:06;;;;;;;6.23;2.33;;;5.40;43.00;;;;;;4952136;29;20179;-70
2023/01/23 05:24:32;;;;;;;1.80;1.30;;;5.40;42.30;;;;;;4951377;28;20202;-69
2023/01/23 05:26:58;;;;;;;2.60;1.83;;;5.40;42.40;;;;;;4952396;29;20184;-69
2023/01/23 05:29:23;;;;;;;2.50;1.70;;;5.40;42.60;;;;;;4951837;28;20753;-68
2023/01/23 05:31:49;;;;;;;3.23;2.10;;;5.40;42.50;;;;;;4960775;28;20171;-69
2023/01/23 05:34:15;;;;;;;1.80;1.20;;;5.50;42.80;;;;;;4953807;28;20183;-68
2023/01/23 05:36:40;;;;;;;1.60;1.10;;;5.50;42.20;;;;;;4953757;28;20266;-69
2023/01/23 05:39:06;;;;;;;2.00;1.30;;;5.50;42.50;;;;;;4953130;29;20175;-71
2023/01/23 05:41:31;;;;;;;2.93;2.23;;;5.70;42.20;;;;;;4952686;29;20195;-69
2023/01/23 05:43:57;;;;;;;2.53;1.57;;;5.40;42.80;;;;;;4953193;29;20210;-69
2023/01/23 05:46:22;;;;;;;2.63;1.80;;;5.20;42.80;;;;;;4952326;29;20207;-70
2023/01/23 05:48:49;;;;;;;1.80;1.20;;;5.20;42.60;;;;;;4952874;29;20207;-70
2023/01/23 05:51:15;;;;;;;2.28;1.67;;;5.10;43.80;;;;;;4953188;29;20246;-69
2023/01/23 05:53:41;;;;;;;1.80;1.20;;;5.20;44.00;;;;;;4952550;29;20640;-69
2023/01/23 05:56:07;;;;;;;1.90;1.30;;;5.30;43.00;;;;;;4952952;28;20254;-69
2023/01/23 05:58:33;;;;;;;2.92;1.40;;;5.20;43.40;;;;;;4953421;29;20187;-69
2023/01/23 06:01:01;;;;;;;2.53;1.63;;;5.40;42.80;;;;;;4936077;29;20258;-70
2023/01/23 06:03:27;;;;;;;1.73;1.10;;;5.20;43.40;;;;;;4952214;29;20186;-70
2023/01/23 06:05:52;;;;;;;1.80;1.20;;;5.10;43.60;;;;;;4951953;28;20231;-70
2023/01/23 06:08:18;;;;;;;2.30;1.53;;;4.90;44.30;;;;;;4952814;29;20238;-69
2023/01/23 06:10:43;;;;;;;2.60;1.70;;;4.90;44.50;;;;;;4951944;29;20730;-72
2023/01/23 06:13:09;;;;;;;2.33;1.63;;;5.20;43.70;;;;;;4952667;29;20190;-71
2023/01/23 06:15:35;;;;;;;2.10;1.40;;;5.20;43.20;;;;;;4951522;28;20680;-69
2023/01/23 06:18:01;;;;;;;2.78;2.20;;;5.30;43.40;;;;;;4953202;29;20183;-69
2023/01/23 06:20:26;;;;;;;2.87;2.00;;;5.30;42.90;;;;;;4953321;29;20237;-69
2023/01/23 06:22:52;;;;;;;1.80;1.20;;;5.20;43.40;;;;;;4951139;29;20183;-69
2023/01/23 06:25:19;;;;;;;2.37;1.73;;;5.20;43.90;;;;;;4952803;28;20214;-69
2023/01/23 06:27:45;;;;;;;2.42;1.40;;;5.10;43.60;;;;;;4952717;29;20473;-69
2023/01/23 06:30:11;;;;;;;2.00;1.37;;;4.90;45.20;;;;;;4934062;29;20663;-69
2023/01/23 06:32:37;;;;;;;2.20;1.63;;;5.20;43.90;;;;;;4951450;29;20973;-69
2023/01/23 06:35:03;;;;;;;2.00;1.40;;;5.30;43.60;;;;;;4952526;28;20223;-70
2023/01/23 06:37:28;;;;;;;1.80;1.20;;;5.30;43.30;;;;;;4935413;29;20190;-70
2023/01/23 06:39:54;;;;;;;1.70;1.13;;;5.30;43.50;;;;;;4953111;29;20415;-70
2023/01/23 06:42:19;;;;;;;2.20;1.50;;;5.20;43.90;;;;;;4954635;28;20216;-69
2023/01/23 06:44:46;;;;;;;1.70;1.10;;;4.80;45.10;;;;;;4955390;28;20581;-69
2023/01/23 06:47:11;;;;;;;2.03;1.35;;;5.10;44.70;;;;;;4956579;29;20183;-69
2023/01/23 06:49:37;;;;;;;2.20;1.73;;;5.00;44.20;;;;;;4956651;29;20306;-69
2023/01/23 06:52:03;;;;;;;1.73;1.10;;;5.00;44.40;;;;;;4956962;29;20171;-69
2023/01/23 06:54:28;;;;;;;1.80;1.20;;;5.30;43.70;;;;;;4939924;29;20180;-70
2023/01/23 06:56:54;;;;;;;1.70;1.20;;;5.30;43.40;;;;;;4956143;29;20449;-70
2023/01/23 06:59:20;;;;;;;2.63;1.40;;;5.10;43.70;;;;;;4957329;29;20238;-69
2023/01/23 07:01:45;;;;;;;3.20;1.93;;;5.10;43.70;;;;;;4957123;29;20187;-69
2023/01/23 07:04:11;;;;;;;3.70;2.43;;;5.30;43.70;;;;;;4956596;28;20926;-69
2023/01/23 07:06:38;;;;;;;1.80;1.20;;;5.20;43.00;;;;;;4957285;29;20195;-70
2023/01/23 07:09:04;;;;;;;2.90;1.52;;;4.60;44.90;;;;;;4957365;29;20592;-69
2023/01/23 07:11:29;;;;;;;3.30;1.70;;;4.80;45.00;;;;;;4956263;29;20203;-69
2023/01/23 07:13:55;;;;;;;3.17;2.30;;;4.80;45.10;;;;;;4954644;29;20198;-70
2023/01/23 07:16:20;;;;;;;2.33;1.77;;;5.10;44.10;;;;;;4941249;29;20203;-71
2023/01/23 07:18:46;;;;;;;2.67;1.63;;;5.40;43.70;;;;;;4943439;29;20274;-74
2023/01/23 07:21:12;;;;;;;1.80;1.20;;;5.40;43.00;;;;;;4956626;29;20259;-76
2023/01/23 07:23:37;;;;;;;1.80;1.20;;;5.20;43.90;;;;;;4956293;29;20274;-76
2023/01/23 07:26:08;;;;;;;2.00;1.20;;;5.00;44.10;;;;;;4956800;29;20218;-74
2023/01/23 07:28:37;;;;;;;1.70;1.10;;;5.10;43.80;;;;;;4945675;29;20218;-71
2023/01/23 07:31:04;;;;;;;1.70;1.10;;;5.10;44.60;;;;;;4953112;29;20191;-72
2023/01/23 07:33:30;;;;;;;1.80;1.20;;;4.80;45.00;;;;;;4948183;28;20195;-71
2023/01/23 07:35:55;;;;;;;1.90;1.20;;;4.80;45.10;;;;;;4937424;29;20702;-72
2023/01/23 07:38:24;;;;;;;2.33;1.73;;;5.10;44.40;;;;;;4956641;29;20183;-76
2023/01/23 07:40:50;;;;;;;1.80;1.10;;;5.20;44.40;;;;;;4955613;29;20278;-71
2023/01/23 07:43:16;;;;;;;1.65;1.10;;;5.10;45.00;;;;;;4939012;29;20611;-71
2023/01/23 07:45:42;;;;;;;2.50;1.23;;;5.00;44.30;;;;;;4955419;28;20211;-70
2023/01/23 07:48:08;;;;;;;2.33;1.43;;;4.80;44.70;;;;;;4949534;29;20672;-71
2023/01/23 07:50:34;;;;;;;2.00;1.40;;;4.90;45.10;;;;;;4955415;29;20415;-72
2023/01/23 07:53:00;;;;;;;2.00;1.40;;;5.10;44.40;;;;;;4954490;28;20535;-71
2023/01/23 07:55:26;;;;;;;1.70;1.10;;;5.00;43.90;;;;;;4938114;29;20229;-72
2023/01/23 07:57:51;;;;;;;2.20;1.47;;;5.10;43.60;;;;;;4935491;29;20446;-70
2023/01/23 08:00:17;;;;;;;1.70;1.10;;;5.00;43.70;;;;;;4952818;29;20282;-72
2023/01/23 08:02:43;;;;;;;1.90;1.30;;;5.10;43.60;;;;;;4930497;29;20190;-74
2023/01/23 08:05:08;;;;;;;2.17;1.53;;;5.20;43.00;;;;;;4951770;29;21264;-71
2023/01/23 08:07:34;;;;;;;5.73;2.30;;;5.40;42.70;;;;;;4946321;29;20187;-71
2023/01/23 08:10:00;;;;;;;1.80;1.10;;;5.20;43.10;;;;;;4955334;29;20175;-71
2023/01/23 08:12:25;;;;;;;2.73;1.83;;;5.40;42.40;;;;;;4936791;29;20187;-71
2023/01/23 08:14:51;;;;;;;2.47;1.50;;;5.40;42.40;;;;;;4955360;28;20206;-71
2023/01/23 08:17:16;;;;;;;3.17;2.27;;;5.50;42.00;;;;;;4951756;29;20325;-73
2023/01/23 08:19:42;;;;;;;1.90;1.30;;;5.60;41.30;;;;;;4953208;29;20195;-71
2023/01/23 08:22:07;;;;;;;2.30;1.50;;;5.60;41.10;;;;;;4964358;28;20187;-71
2023/01/23 08:24:33;;;;;;;1.80;1.30;;;5.70;41.00;;;;;;4952868;28;20207;-71
2023/01/23 08:26:59;;;;;;;1.80;1.20;;;5.80;40.90;;;;;;4953493;29;20198;-71
2023/01/23 08:29:24;;;;;;;1.77;1.30;;;5.80;40.30;;;;;;4954816;29;20578;-74
2023/01/23 08:31:53;;;;;;;1.70;1.10;;;5.50;40.70;;;;;;4954787;29;20175;-71
2023/01/23 08:34:19;;;;;;;1.70;1.20;;;5.30;42.10;;;;;;4950401;28;20845;-71
2023/01/23 08:36:45;;;;;;;2.10;1.45;;;5.70;41.00;;;;;;4954958;28;20187;-71
2023/01/23 08:39:11;;;;;;;2.17;1.40;;;5.70;40.70;;;;;;4954146;29;20572;-73
2023/01/23 08:41:36;;;;;;;2.10;1.50;;;6.00;40.40;;;;;;4936219;29;20197;-70
2023/01/23 08:44:03;;;;;;;1.70;1.10;;;5.80;40.30;;;;;;4953072;29;20197;-73
2023/01/23 08:46:28;;;;;;;1.90;1.40;;;6.00;39.80;;;;;;4939056;29;20207;-68
2023/01/23 08:48:54;;;;;;;1.60;1.10;;;6.20;39.40;;;;;;4952147;29;20229;-68
2023/01/23 08:51:19;;;;;;;2.17;1.37;;;6.00;40.40;;;;;;4936247;29;20242;-70
2023/01/23 08:53:45;;;;;;;4.23;2.70;;;5.90;39.70;;;;;;4954245;29;20558;-70
2023/01/23 08:56:17;;;;;;;2.57;1.57;;;5.80;39.40;;;;;;4954032;28;20200;-71
2023/01/23 08:58:43;;;;;;;2.78;1.90;;;5.90;39.70;;;;;;4954278;29;20639;-70
2023/01/23 09:01:25;;;;;;;4.18;2.15;;;6.20;38.70;;;;;;4937416;29;20669;-73
2023/01/23 09:03:51;;;;;;;2.33;1.63;;;6.00;39.30;;;;;;4953766;28;20171;-70
2023/01/23 09:06:18;;;;;;;1.80;1.30;;;5.90;38.80;;;;;;4953698;28;20221;-70
2023/01/23 09:08:44;;;;;;;1.70;1.10;;;5.80;39.70;;;;;;4953785;29;20195;-70
2023/01/23 09:11:11;;;;;;;2.30;1.88;;;5.80;39.40;;;;;;4952669;29;20652;-70
2023/01/23 09:13:37;;;;;;;1.80;1.30;;;6.30;39.00;;;;;;4952492;29;20655;-70
2023/01/23 09:16:04;;;;;;;1.60;1.10;;;6.30;38.70;;;;;;4953925;28;20210;-70
2023/01/23 09:18:30;;;;;;;1.67;1.10;;;5.70;38.50;;;;;;4953962;29;20198;-70
2023/01/23 09:20:56;;;;;;;14.10;2.60;;;5.80;39.70;;;;;;4953666;29;20652;-70
2023/01/23 09:23:22;;;;;;;1.63;1.10;;;6.00;39.10;;;;;;4952817;29;20419;-70
2023/01/23 09:25:48;;;;;;;2.50;1.97;;;5.90;39.00;;;;;;4952504;29;20203;-70
2023/01/23 09:28:13;;;;;;;1.70;1.20;;;6.00;38.60;;;;;;4953554;29;20451;-70
2023/01/23 09:30:39;;;;;;;2.00;1.40;;;5.90;39.30;;;;;;4953565;29;20691;-71
2023/01/23 09:33:06;;;;;;;3.10;2.15;;;6.30;38.30;;;;;;4953268;29;20183;-71
2023/01/23 09:35:32;;;;;;;1.67;1.10;;;6.40;38.00;;;;;;4953607;28;20542;-71
2023/01/23 09:38:00;;;;;;;5.50;2.58;;;6.10;38.60;;;;;;4954366;29;20320;-71
2023/01/23 09:40:31;;;;;;;2.15;1.40;;;5.90;38.50;;;;;;4951818;29;20183;-71
2023/01/23 09:43:11;;;;;;;5.10;2.55;;;5.90;39.10;;;;;;4952054;29;20179;-70
2023/01/23 09:45:38;;;;;;;1.90;1.30;;;5.60;39.00;;;;;;4953315;28;20305;-70
2023/01/23 09:48:18;;;;;;;1.70;1.17;;;5.70;39.50;;;;;;4953485;29;20217;-70
2023/01/23 09:51:10;;;;;;;1.80;1.20;;;6.00;38.60;;;;;;4953567;29;20175;-70
2023/01/23 09:53:39;;;;;;;1.70;1.20;;;6.10;38.60;;;;;;4935935;29;20606;-70
2023/01/23 09:56:32;;;;;;;1.95;1.35;;;5.90;38.00;;;;;;4953039;28;20191;-70
2023/01/23 09:59:04;;;;;;;2.03;1.35;;;5.80;38.90;;;;;;4953513;29;20219;-70
2023/01/23 10:01:30;;;;;;;1.90;1.40;;;6.00;38.70;;;;;;4953592;29;20239;-71
2023/01/23 10:04:00;;;;;;;1.80;1.30;;;6.00;37.60;;;;;;4953110;29;20261;-71
2023/01/23 10:06:51;;;;;;;1.70;1.30;;;5.80;39.10;;;;;;4953439;28;20199;-72
2023/01/23 10:09:58;;;;;;;1.80;1.55;;;5.90;38.70;;;;;;4952991;28;20656;-72
2023/01/23 10:12:57;;;;;;;1.85;1.30;;;6.00;39.40;;;;;;4953706;29;20163;-72
2023/01/23 10:15:44;;;;;;;1.73;1.25;;;6.60;37.90;;;;;;4953267;28;20199;-72
2023/01/23 10:18:27;;;;;;;3.80;2.55;;;6.20;37.80;;;;;;4953311;29;20787;-72
2023/01/23 10:21:15;;;;;;;1.88;1.30;;;5.80;40.60;;;;;;4936573;29;20250;-71
2023/01/23 10:24:02;;;;;;;2.55;1.65;;;6.00;40.10;;;;;;4955468;29;20188;-72
2023/01/23 10:26:41;;;;;;;1.70;1.27;;;6.50;38.90;;;;;;4953856;28;20241;-70
2023/01/23 10:29:31;;;;;;;2.10;1.30;;;6.10;39.60;;;;;;4963928;28;20205;-70
2023/01/23 10:32:00;;;;;;;2.08;1.48;;;6.40;39.80;;;;;;4942343;29;20191;-71
2023/01/23 10:34:33;;;;;;;3.65;3.05;;;6.10;39.80;;;;;;4949253;28;20276;-71
2023/01/23 10:37:17;;;;;;;2.38;1.48;;;6.30;39.20;;;;;;4950825;29;20669;-71
2023/01/23 10:40:01;;;;;;;1.90;1.35;;;6.40;39.00;;;;;;4960697;28;20214;-71
2023/01/23 10:42:27;;;;;;;1.98;1.42;;;6.60;38.60;;;;;;4961398;28;20190;-71
2023/01/23 10:44:53;;;;;;;1.70;1.10;;;6.60;38.00;;;;;;4968697;28;20210;-70
2023/01/23 10:47:30;;;;;;;1.70;1.13;;;6.50;38.20;;;;;;4952965;28;20183;-70
2023/01/23 10:49:56;;;;;;;1.83;1.23;;;6.60;37.70;;;;;;4946130;29;20214;-71
2023/01/23 10:52:43;;;;;;;2.00;1.50;;;6.00;39.50;;;;;;4952078;29;20608;-70
2023/01/23 10:55:18;;;;;;;1.80;1.30;;;5.70;39.70;;;;;;4952587;28;20630;-70
2023/01/23 10:57:47;;;;;;;1.70;1.10;;;5.80;40.00;;;;;;4951202;29;20187;-72
2023/01/23 11:00:27;;;;;;;1.70;1.10;;;6.10;38.30;;;;;;4951419;29;20179;-71
2023/01/23 11:02:53;;;;;;;1.80;1.20;;;6.00;38.90;;;;;;4946906;29;20179;-71
2023/01/23 11:05:42;;;;;;;1.70;1.20;;;6.00;39.10;;;;;;4949732;28;20298;-71
2023/01/23 11:08:27;;;;;;;1.70;1.10;;;5.60;39.90;;;;;;4950911;29;20595;-71
2023/01/23 11:11:10;;;;;;;1.70;1.23;;;6.10;38.60;;;;;;4948393;29;20183;-71
2023/01/23 11:13:36;;;;;;;1.90;1.30;;;6.10;37.90;;;;;;4935139;29;20189;-71
2023/01/23 11:16:01;;;;;;;1.80;1.30;;;6.20;38.10;;;;;;4951969;28;20199;-71
2023/01/23 11:18:54;;;;;;;1.70;1.10;;;6.40;37.30;;;;;;4952476;29;20183;-71
2023/01/23 11:21:27;;;;;;;1.63;1.10;;;6.00;38.20;;;;;;4934293;29;20681;-74
2023/01/23 11:24:18;;;;;;;1.60;1.00;;;6.10;38.00;;;;;;4949440;28;20195;-72
2023/01/23 11:26:44;;;;;;;1.63;1.10;;;6.20;38.30;;;;;;4950647;28;20184;-71
2023/01/23 11:29:25;;;;;;;1.60;1.10;;;6.30;37.20;;;;;;4953270;29;20219;-73
2023/01/23 11:32:10;;;;;;;2.20;1.50;;;6.50;36.50;;;;;;4955770;28;20262;-71
2023/01/23 11:34:42;;;;;;;2.50;1.60;;;6.40;37.00;;;;;;4955959;28;20198;-71
2023/01/23 11:37:19;;;;;;;1.70;1.20;;;6.70;36.70;;;;;;4942647;29;20278;-72
2023/01/23 11:39:51;;;;;;;1.80;1.30;;;6.50;36.80;;;;;;4946303;29;20190;-72
2023/01/23 11:42:18;;;;;;;1.60;1.00;;;6.20;37.70;;;;;;4955451;29;20451;-71
2023/01/23 11:44:45;;;;;;;1.70;1.20;;;6.10;38.00;;;;;;4954426;28;20230;-72
2023/01/23 11:47:18;;;;;;;1.70;1.27;;;5.80;38.20;;;;;;4936817;29;20192;-72
2023/01/23 11:49:49;;;;;;;2.55;1.80;;;5.70;39.10;;;;;;4948375;29;20199;-71
2023/01/23 11:52:41;;;;;;;8.68;2.50;;;5.50;39.50;;;;;;4955545;29;20175;-71
2023/01/23 11:55:32;;;;;;;1.83;1.30;;;5.50;39.90;;;;;;4947159;28;20206;-70
2023/01/23 11:58:14;;;;;;;1.95;1.40;;;5.90;38.90;;;;;;4951529;28;20552;-70
2023/01/23 12:00:44;;;;;;;2.10;1.60;;;6.10;38.30;;;;;;4951663;28;20195;-70
2023/01/23 12:03:43;;;;;;;2.00;1.50;;;5.90;38.90;;;;;;4954783;29;20699;-69
2023/01/23 12:06:27;;;;;;;2.15;1.67;;;6.60;37.70;;;;;;4955087;28;20222;-69
2023/01/23 12:09:11;;;;;;;2.20;1.60;;;6.20;37.70;;;;;;4947708;29;20207;-69
2023/01/23 12:11:57;;;;;;;1.70;1.10;;;6.40;38.00;;;;;;4955318;29;20965;-69
2023/01/23 12:14:34;;;;;;;1.70;1.20;;;6.70;36.90;;;;;;4954901;28;20163;-69
2023/01/23 12:17:15;;;;;;;1.70;1.10;;;6.80;37.10;;;;;;4952692;29;20170;-71
2023/01/23 12:20:00;;;;;;;1.70;1.10;;;6.50;37.60;;;;;;4952236;29;20210;-68
2023/01/23 12:22:50;;;;;;;1.70;1.30;;;6.40;38.00;;;;;;4954767;28;20632;-68
2023/01/23 12:25:35;;;;;;;1.80;1.25;;;6.80;37.80;;;;;;4954903;28;20199;-68
2023/01/23 12:28:14;;;;;;;1.80;1.20;;;6.60;37.10;;;;;;4951505;28;20341;-69
2023/01/23 12:30:45;;;;;;;1.70;1.10;;;6.90;37.20;;;;;;4954357;29;20266;-67
2023/01/23 12:33:48;;;;;;;3.40;1.73;;;6.50;38.00;;;;;;4954477;29;20186;-68
2023/01/23 12:36:32;;;;;;;1.70;1.20;;;6.70;37.70;;;;;;4953691;28;20202;-68
2023/01/23 12:39:11;;;;;;;1.70;1.13;;;7.00;36.60;;;;;;4952951;28;20179;-67
2023/01/23 12:41:42;;;;;;;1.70;1.10;;;6.30;37.50;;;;;;4950414;29;20191;-67
2023/01/23 12:44:30;;;;;;;2.05;1.50;;;6.30;38.30;;;;;;4954142;28;20203;-67
2023/01/23 12:47:06;;;;;;;3.25;1.73;;;6.10;38.80;;;;;;4954685;29;20179;-68
2023/01/23 12:49:48;;;;;;;1.77;1.25;;;6.10;39.70;;;;;;4952969;29;20242;-68
2023/01/23 12:52:28;;;;;;;3.67;1.98;;;5.80;39.90;;;;;;4953168;29;20183;-68
2023/01/23 12:55:06;;;;;;;2.10;1.50;;;5.90;40.00;;;;;;4954262;28;20207;-68
2023/01/23 12:57:39;;;;;;;1.92;1.40;;;6.10;39.70;;;;;;4953677;29;20191;-68
2023/01/23 13:00:35;;;;;;;1.80;1.20;;;6.60;38.50;;;;;;4953315;28;20198;-68
2023/01/23 13:03:27;;;;;;;1.70;1.10;;;6.80;37.50;;;;;;4952025;29;20179;-67
2023/01/23 13:05:56;;;;;;;1.77;1.20;;;6.50;38.30;;;;;;4946858;29;20283;-68
2023/01/23 13:08:42;;;;;;;1.90;1.30;;;6.30;39.10;;;;;;4953178;29;20211;-68
2023/01/23 13:11:43;;;;;;;2.97;2.10;;;6.50;38.60;;;;;;4936279;29;20210;-68
2023/01/23 13:14:21;;;;;;;1.70;1.10;;;6.60;38.70;;;;;;4952561;29;20633;-68
2023/01/23 13:16:51;;;;;;;3.35;1.95;;;6.50;38.60;;;;;;4941440;29;20190;-69